VTK601 UEEE-UHMM
Flight info
| Callsign | VTK601 |
|---|---|
| Flight time | N/A |
| Altitude | 39000 |
| Route | KUTEG6E KUTEG G370 INLIR A949 KUKIR KUKIR5J |
| Aircraft | A343/H-SDE2E3FGHIJ4J5M1RWXY/LB1D1 |
Departure
| Time | 2026-04-25 05:28 |
|---|---|
| Airport | Platon Oyunsky Yakutsk International Airport (UEEE) |
Arrival
| Time | N/A |
|---|---|
| Airport | Sokol Airport (UHMM) |
| Time | Latitude | Longitude | Altitude | Speed | Heading |
|---|---|---|---|---|---|
| 2026-04-25 05:17 | 62.08776 | 129.75472 | 335 ft | 0 kts | 299° |
| 2026-04-25 05:25 | 62.08783 | 129.75439 | 335 ft | 9 kts | 292° |
| 2026-04-25 05:25 | 62.08742 | 129.75317 | 331 ft | 9 kts | 184° |
| 2026-04-25 05:26 | 62.08629 | 129.75329 | 331 ft | 23 kts | 186° |
| 2026-04-25 05:26 | 62.08470 | 129.75186 | 331 ft | 26 kts | 208° |
| 2026-04-25 05:26 | 62.08376 | 129.75124 | 333 ft | 20 kts | 170° |
| 2026-04-25 05:26 | 62.08288 | 129.75344 | 333 ft | 20 kts | 119° |
| 2026-04-25 05:27 | 62.08223 | 129.75591 | 331 ft | 15 kts | 113° |
| 2026-04-25 05:27 | 62.08256 | 129.75777 | 331 ft | 14 kts | 41° |
| 2026-04-25 05:27 | 62.08268 | 129.75798 | 337 ft | 3 kts | 39° |
| 2026-04-25 05:27 | 62.08442 | 129.76084 | 333 ft | 65 kts | 37° |
| 2026-04-25 05:28 | 62.08975 | 129.76931 | 331 ft | 123 kts | 37° |
| 2026-04-25 05:28 | 62.09778 | 129.78190 | 551 ft | 152 kts | 35° |
| 2026-04-25 05:28 | 62.10664 | 129.79531 | 1143 ft | 161 kts | 36° |
| 2026-04-25 05:28 | 62.11581 | 129.81031 | 1765 ft | 176 kts | 36° |
| 2026-04-25 05:29 | 62.12627 | 129.82741 | 2163 ft | 201 kts | 36° |
| 2026-04-25 05:29 | 62.13823 | 129.84680 | 2564 ft | 233 kts | 36° |
| 2026-04-25 05:29 | 62.15160 | 129.86844 | 3362 ft | 245 kts | 35° |
| 2026-04-25 05:29 | 62.16531 | 129.89051 | 4442 ft | 248 kts | 35° |
| 2026-04-25 05:30 | 62.17918 | 129.91289 | 5444 ft | 252 kts | 35° |
| 2026-04-25 05:30 | 62.19292 | 129.93700 | 6394 ft | 259 kts | 44° |
| 2026-04-25 05:30 | 62.20244 | 129.96992 | 7336 ft | 265 kts | 71° |
| 2026-04-25 05:30 | 62.20344 | 130.00929 | 8348 ft | 270 kts | 100° |
| 2026-04-25 05:31 | 62.19698 | 130.04722 | 9330 ft | 274 kts | 113° |
| 2026-04-25 05:31 | 62.18864 | 130.08420 | 10244 ft | 278 kts | 115° |
| 2026-04-25 05:31 | 62.17990 | 130.12242 | 10729 ft | 295 kts | 114° |
| 2026-04-25 05:31 | 62.17064 | 130.16341 | 11064 ft | 316 kts | 115° |
| 2026-04-25 05:32 | 62.16092 | 130.20662 | 11601 ft | 327 kts | 114° |
| 2026-04-25 05:32 | 62.15100 | 130.25087 | 12340 ft | 332 kts | 114° |
| 2026-04-25 05:32 | 62.14096 | 130.29574 | 13065 ft | 338 kts | 114° |
| 2026-04-25 05:32 | 62.13078 | 130.34121 | 13880 ft | 340 kts | 114° |
| 2026-04-25 05:33 | 62.12047 | 130.38716 | 14583 ft | 345 kts | 115° |
| 2026-04-25 05:33 | 62.10999 | 130.43376 | 15240 ft | 350 kts | 115° |
| 2026-04-25 05:33 | 62.09941 | 130.48089 | 15952 ft | 354 kts | 115° |
| 2026-04-25 05:33 | 62.08880 | 130.52809 | 16584 ft | 359 kts | 115° |
| 2026-04-25 05:34 | 62.07777 | 130.57698 | 17324 ft | 363 kts | 115° |
| 2026-04-25 05:34 | 62.06689 | 130.62514 | 17986 ft | 368 kts | 115° |
| 2026-04-25 05:34 | 62.05577 | 130.67477 | 18622 ft | 372 kts | 114° |
| 2026-04-25 05:34 | 62.04664 | 130.72665 | 19213 ft | 377 kts | 105° |
| 2026-04-25 05:35 | 62.04111 | 130.78148 | 19791 ft | 380 kts | 99° |
| 2026-04-25 05:35 | 62.03723 | 130.83754 | 20390 ft | 384 kts | 97° |
| 2026-04-25 05:35 | 62.03411 | 130.89438 | 20967 ft | 389 kts | 96° |
| 2026-04-25 05:35 | 62.03125 | 130.95188 | 21541 ft | 392 kts | 96° |
| 2026-04-25 05:36 | 62.02835 | 131.00994 | 22102 ft | 396 kts | 96° |
| 2026-04-25 05:36 | 62.02530 | 131.06855 | 22666 ft | 400 kts | 97° |
| 2026-04-25 05:36 | 62.02206 | 131.12764 | 23215 ft | 404 kts | 97° |
| 2026-04-25 05:36 | 62.01866 | 131.18717 | 23754 ft | 407 kts | 97° |
| 2026-04-25 05:37 | 62.01515 | 131.24724 | 24183 ft | 410 kts | 98° |
| 2026-04-25 05:37 | 62.01157 | 131.30776 | 24621 ft | 414 kts | 98° |
| 2026-04-25 05:37 | 62.00792 | 131.36870 | 25076 ft | 416 kts | 98° |
| 2026-04-25 05:37 | 62.00422 | 131.43011 | 25502 ft | 419 kts | 98° |
| 2026-04-25 05:38 | 62.00048 | 131.49182 | 25948 ft | 422 kts | 98° |
| 2026-04-25 05:38 | 61.99667 | 131.55408 | 26377 ft | 425 kts | 98° |
| 2026-04-25 05:38 | 61.99284 | 131.61662 | 26791 ft | 428 kts | 98° |
| 2026-04-25 05:38 | 61.98895 | 131.67955 | 27213 ft | 430 kts | 98° |
| 2026-04-25 05:39 | 61.98501 | 131.74276 | 27622 ft | 433 kts | 98° |
| 2026-04-25 05:39 | 61.98102 | 131.80627 | 28021 ft | 435 kts | 98° |
| 2026-04-25 05:39 | 61.97697 | 131.87021 | 28390 ft | 438 kts | 98° |
| 2026-04-25 05:39 | 61.97286 | 131.93456 | 28787 ft | 440 kts | 98° |
| 2026-04-25 05:40 | 61.96869 | 131.99924 | 29139 ft | 443 kts | 99° |
| 2026-04-25 05:40 | 61.96447 | 132.06425 | 29499 ft | 446 kts | 98° |
| 2026-04-25 05:40 | 61.96020 | 132.12981 | 29878 ft | 448 kts | 99° |
| 2026-04-25 05:40 | 61.95587 | 132.19557 | 30197 ft | 451 kts | 98° |
| 2026-04-25 05:41 | 61.95149 | 132.26164 | 30496 ft | 453 kts | 99° |
| 2026-04-25 05:41 | 61.94706 | 132.32803 | 30795 ft | 455 kts | 99° |
| 2026-04-25 05:41 | 61.94257 | 132.39472 | 31097 ft | 457 kts | 99° |
| 2026-04-25 05:41 | 61.93804 | 132.46163 | 31368 ft | 459 kts | 99° |
| 2026-04-25 05:42 | 61.93344 | 132.52885 | 31628 ft | 461 kts | 99° |
| 2026-04-25 05:42 | 61.92879 | 132.59625 | 31901 ft | 463 kts | 99° |
| 2026-04-25 05:42 | 61.92412 | 132.66397 | 32236 ft | 463 kts | 99° |
| 2026-04-25 05:42 | 61.91950 | 132.73145 | 32643 ft | 462 kts | 99° |
| 2026-04-25 05:43 | 61.91489 | 132.79893 | 33038 ft | 461 kts | 99° |
| 2026-04-25 05:43 | 61.91026 | 132.86619 | 33393 ft | 461 kts | 99° |
| 2026-04-25 05:43 | 61.90563 | 132.93338 | 33715 ft | 460 kts | 99° |
| 2026-04-25 05:43 | 61.90094 | 133.00059 | 34041 ft | 460 kts | 99° |
| 2026-04-25 05:44 | 61.89622 | 133.06766 | 34328 ft | 460 kts | 99° |
| 2026-04-25 05:44 | 61.89147 | 133.13470 | 34618 ft | 459 kts | 99° |
| 2026-04-25 05:44 | 61.88668 | 133.20161 | 34879 ft | 459 kts | 99° |
| 2026-04-25 05:44 | 61.88187 | 133.26845 | 35120 ft | 459 kts | 99° |
| 2026-04-25 05:45 | 61.87701 | 133.33541 | 35367 ft | 460 kts | 99° |
| 2026-04-25 05:45 | 61.87211 | 133.40239 | 35591 ft | 460 kts | 99° |
| 2026-04-25 05:45 | 61.86717 | 133.46942 | 35838 ft | 461 kts | 100° |
| 2026-04-25 05:45 | 61.86219 | 133.53650 | 36096 ft | 461 kts | 99° |
| 2026-04-25 05:46 | 61.85719 | 133.60350 | 36370 ft | 460 kts | 100° |
| 2026-04-25 05:46 | 61.85216 | 133.67053 | 36604 ft | 461 kts | 99° |
| 2026-04-25 05:46 | 61.84703 | 133.73750 | 36868 ft | 461 kts | 100° |
| 2026-04-25 05:46 | 61.84173 | 133.80444 | 37014 ft | 463 kts | 100° |
| 2026-04-25 05:47 | 61.83633 | 133.87170 | 37206 ft | 464 kts | 100° |
| 2026-04-25 05:47 | 61.83088 | 133.93893 | 37438 ft | 464 kts | 100° |
| 2026-04-25 05:47 | 61.82542 | 134.00625 | 37721 ft | 463 kts | 100° |
| 2026-04-25 05:47 | 61.81996 | 134.07333 | 37995 ft | 462 kts | 100° |
| 2026-04-25 05:48 | 61.81450 | 134.14017 | 38252 ft | 461 kts | 100° |
| 2026-04-25 05:48 | 61.80901 | 134.20704 | 38504 ft | 461 kts | 99° |
| 2026-04-25 05:48 | 61.80352 | 134.27372 | 38732 ft | 460 kts | 99° |
| 2026-04-25 05:48 | 61.79800 | 134.34035 | 38914 ft | 460 kts | 99° |
| 2026-04-25 05:49 | 61.79243 | 134.40710 | 38997 ft | 462 kts | 100° |
| 2026-04-25 05:49 | 61.78114 | 134.54083 | 39006 ft | 461 kts | 100° |
| 2026-04-25 05:50 | 61.76976 | 134.67398 | 39010 ft | 460 kts | 100° |
| 2026-04-25 05:50 | 61.75829 | 134.80689 | 39005 ft | 460 kts | 100° |
| 2026-04-25 05:51 | 61.74665 | 134.93995 | 39006 ft | 460 kts | 100° |
| 2026-04-25 05:51 | 61.73490 | 135.07267 | 39007 ft | 460 kts | 100° |
| 2026-04-25 05:52 | 61.72309 | 135.20550 | 39000 ft | 461 kts | 100° |
| 2026-04-25 05:52 | 61.71136 | 135.33842 | 39005 ft | 461 kts | 100° |
| 2026-04-25 05:53 | 61.69953 | 135.47135 | 39003 ft | 461 kts | 100° |
| 2026-04-25 05:53 | 61.68754 | 135.60421 | 39002 ft | 461 kts | 100° |
| 2026-04-25 05:54 | 61.67541 | 135.73683 | 39010 ft | 461 kts | 100° |
| 2026-04-25 05:54 | 61.65701 | 135.93562 | 39004 ft | 461 kts | 100° |
| 2026-04-25 05:55 | 61.64462 | 136.06796 | 39004 ft | 461 kts | 101° |
| 2026-04-25 05:55 | 61.63204 | 136.20010 | 38995 ft | 461 kts | 101° |
| 2026-04-25 05:56 | 61.61931 | 136.33209 | 38999 ft | 461 kts | 101° |
| 2026-04-25 05:56 | 61.60644 | 136.46422 | 39000 ft | 461 kts | 101° |
| 2026-04-25 05:57 | 61.59355 | 136.59524 | 38999 ft | 462 kts | 101° |
| 2026-04-25 05:57 | 61.58045 | 136.72721 | 39000 ft | 461 kts | 101° |
| 2026-04-25 05:58 | 61.56724 | 136.85898 | 38994 ft | 462 kts | 101° |
| 2026-04-25 05:58 | 61.55388 | 136.99068 | 39002 ft | 461 kts | 101° |
| 2026-04-25 05:59 | 61.54038 | 137.12216 | 39001 ft | 461 kts | 101° |
| 2026-04-25 05:59 | 61.52678 | 137.25366 | 38993 ft | 461 kts | 102° |
| 2026-04-25 06:00 | 61.51304 | 137.38503 | 39003 ft | 461 kts | 102° |
| 2026-04-25 06:00 | 61.49919 | 137.51618 | 39007 ft | 461 kts | 102° |
| 2026-04-25 06:01 | 61.48518 | 137.64751 | 38992 ft | 463 kts | 101° |
| 2026-04-25 06:01 | 61.47101 | 137.77888 | 38998 ft | 463 kts | 102° |
| 2026-04-25 06:02 | 61.45673 | 137.91040 | 38998 ft | 463 kts | 102° |
| 2026-04-25 06:02 | 61.44233 | 138.04169 | 39000 ft | 463 kts | 102° |
| 2026-04-25 06:03 | 61.42776 | 138.17272 | 38997 ft | 463 kts | 102° |
| 2026-04-25 06:03 | 61.41308 | 138.30370 | 38996 ft | 463 kts | 102° |
| 2026-04-25 06:04 | 61.39826 | 138.43474 | 38997 ft | 463 kts | 102° |
| 2026-04-25 06:04 | 61.38335 | 138.56548 | 38999 ft | 463 kts | 102° |
| 2026-04-25 06:05 | 61.36830 | 138.69618 | 38999 ft | 463 kts | 102° |
| 2026-04-25 06:05 | 61.35311 | 138.82675 | 39002 ft | 464 kts | 102° |
| 2026-04-25 06:06 | 61.33778 | 138.95738 | 39001 ft | 464 kts | 102° |
| 2026-04-25 06:06 | 61.32230 | 139.08807 | 39013 ft | 465 kts | 102° |
| 2026-04-25 06:07 | 61.30671 | 139.21853 | 39004 ft | 465 kts | 102° |
| 2026-04-25 06:07 | 61.29098 | 139.34893 | 39014 ft | 465 kts | 102° |
| 2026-04-25 06:08 | 61.27514 | 139.47919 | 39015 ft | 465 kts | 102° |
| 2026-04-25 06:08 | 61.26187 | 139.58743 | 39016 ft | 465 kts | 103° |
| 2026-04-25 06:09 | 61.24580 | 139.71747 | 39015 ft | 465 kts | 103° |
| 2026-04-25 06:09 | 61.22958 | 139.84742 | 39025 ft | 465 kts | 103° |
| 2026-04-25 06:10 | 61.21325 | 139.97713 | 39027 ft | 465 kts | 103° |
| 2026-04-25 06:10 | 61.19680 | 140.10685 | 39018 ft | 465 kts | 103° |
| 2026-04-25 06:11 | 61.18020 | 140.23650 | 39013 ft | 465 kts | 103° |
| 2026-04-25 06:11 | 61.16348 | 140.36613 | 38999 ft | 465 kts | 103° |
| 2026-04-25 06:12 | 61.14662 | 140.49567 | 39002 ft | 466 kts | 103° |
| 2026-04-25 06:12 | 61.12968 | 140.62495 | 39002 ft | 466 kts | 103° |
| 2026-04-25 06:13 | 61.11260 | 140.75424 | 39004 ft | 466 kts | 103° |
| 2026-04-25 06:14 | 61.08673 | 140.94777 | 39007 ft | 466 kts | 103° |
| 2026-04-25 06:14 | 61.06934 | 141.07669 | 39008 ft | 466 kts | 103° |
| 2026-04-25 06:15 | 61.05182 | 141.20561 | 39036 ft | 466 kts | 103° |
| 2026-04-25 06:15 | 61.03417 | 141.33438 | 39033 ft | 467 kts | 103° |
| 2026-04-25 06:16 | 61.01636 | 141.46310 | 39034 ft | 467 kts | 103° |
| 2026-04-25 06:16 | 60.99844 | 141.59175 | 39033 ft | 467 kts | 103° |
| 2026-04-25 06:17 | 60.98040 | 141.72027 | 39043 ft | 467 kts | 103° |
| 2026-04-25 06:17 | 60.96221 | 141.84870 | 39045 ft | 467 kts | 103° |
| 2026-04-25 06:18 | 60.94388 | 141.97676 | 39044 ft | 467 kts | 103° |
| 2026-04-25 06:18 | 60.92545 | 142.10495 | 39044 ft | 467 kts | 104° |
| 2026-04-25 06:19 | 60.90694 | 142.23294 | 39040 ft | 468 kts | 104° |
| 2026-04-25 06:19 | 60.88829 | 142.36095 | 39032 ft | 467 kts | 104° |
| 2026-04-25 06:20 | 60.86952 | 142.48860 | 39032 ft | 467 kts | 104° |
| 2026-04-25 06:20 | 60.85061 | 142.61627 | 39018 ft | 468 kts | 104° |
| 2026-04-25 06:21 | 60.83156 | 142.74392 | 39021 ft | 468 kts | 104° |
| 2026-04-25 06:21 | 60.81238 | 142.87136 | 39014 ft | 468 kts | 104° |
| 2026-04-25 06:22 | 60.79305 | 142.99873 | 39013 ft | 468 kts | 104° |
| 2026-04-25 06:22 | 60.77361 | 143.12603 | 39017 ft | 468 kts | 104° |
| 2026-04-25 06:23 | 60.75402 | 143.25325 | 39006 ft | 469 kts | 104° |
| 2026-04-25 06:23 | 60.73419 | 143.38030 | 39007 ft | 470 kts | 104° |
| 2026-04-25 06:24 | 60.71431 | 143.50747 | 39005 ft | 469 kts | 104° |
| 2026-04-25 06:24 | 60.69433 | 143.63447 | 39010 ft | 469 kts | 104° |
| 2026-04-25 06:25 | 60.67422 | 143.76126 | 39007 ft | 469 kts | 104° |
| 2026-04-25 06:25 | 60.65398 | 143.88783 | 39016 ft | 470 kts | 104° |
| 2026-04-25 06:26 | 60.63361 | 144.01442 | 39017 ft | 470 kts | 104° |
| 2026-04-25 06:26 | 60.61310 | 144.14095 | 39026 ft | 470 kts | 105° |
| 2026-04-25 06:27 | 60.59245 | 144.26722 | 39028 ft | 470 kts | 105° |
| 2026-04-25 06:27 | 60.57181 | 144.39367 | 39024 ft | 471 kts | 105° |
| 2026-04-25 06:28 | 60.55106 | 144.51971 | 39032 ft | 470 kts | 105° |
| 2026-04-25 06:28 | 60.53018 | 144.64564 | 39033 ft | 471 kts | 105° |
| 2026-04-25 06:29 | 60.50911 | 144.77160 | 39033 ft | 471 kts | 105° |
| 2026-04-25 06:29 | 60.48800 | 144.89737 | 39036 ft | 470 kts | 105° |
| 2026-04-25 06:30 | 60.46678 | 145.02277 | 39034 ft | 471 kts | 105° |
| 2026-04-25 06:30 | 60.44549 | 145.14734 | 39034 ft | 471 kts | 105° |
| 2026-04-25 06:31 | 60.42380 | 145.27326 | 39041 ft | 470 kts | 105° |
| 2026-04-25 06:31 | 60.40226 | 145.39830 | 39033 ft | 471 kts | 105° |
| 2026-04-25 06:32 | 60.38076 | 145.52228 | 39035 ft | 470 kts | 106° |
| 2026-04-25 06:32 | 60.35879 | 145.64784 | 39031 ft | 471 kts | 106° |
| 2026-04-25 06:33 | 60.33689 | 145.77224 | 39031 ft | 471 kts | 106° |
| 2026-04-25 06:33 | 60.31483 | 145.89668 | 39033 ft | 470 kts | 106° |
| 2026-04-25 06:34 | 60.30213 | 146.01469 | 39032 ft | 464 kts | 95° |
| 2026-04-25 06:34 | 60.29313 | 146.14351 | 39034 ft | 464 kts | 94° |
| 2026-04-25 06:35 | 60.28487 | 146.27247 | 39031 ft | 464 kts | 94° |
| 2026-04-25 06:35 | 60.27641 | 146.40118 | 38639 ft | 461 kts | 94° |
| 2026-04-25 06:35 | 60.27207 | 146.46508 | 38192 ft | 458 kts | 94° |
| 2026-04-25 06:36 | 60.26770 | 146.52882 | 37603 ft | 459 kts | 93° |
| 2026-04-25 06:36 | 60.26331 | 146.59254 | 37041 ft | 460 kts | 93° |
| 2026-04-25 06:36 | 60.25885 | 146.65649 | 36478 ft | 461 kts | 93° |
| 2026-04-25 06:36 | 60.25435 | 146.72038 | 35872 ft | 462 kts | 93° |
| 2026-04-25 06:37 | 60.24980 | 146.78457 | 35249 ft | 464 kts | 93° |
| 2026-04-25 06:37 | 60.24520 | 146.84901 | 34576 ft | 466 kts | 93° |
| 2026-04-25 06:37 | 60.24056 | 146.91375 | 33872 ft | 469 kts | 92° |
| 2026-04-25 06:37 | 60.23586 | 146.97871 | 33109 ft | 469 kts | 92° |
| 2026-04-25 06:38 | 60.23111 | 147.04374 | 32386 ft | 469 kts | 92° |
| 2026-04-25 06:38 | 60.22632 | 147.10880 | 31649 ft | 470 kts | 92° |
| 2026-04-25 06:38 | 60.22150 | 147.17386 | 31027 ft | 468 kts | 91° |
| 2026-04-25 06:38 | 60.21669 | 147.23814 | 30553 ft | 462 kts | 91° |
| 2026-04-25 06:39 | 60.21195 | 147.30097 | 30048 ft | 458 kts | 91° |
| 2026-04-25 06:39 | 60.20711 | 147.36480 | 29460 ft | 453 kts | 91° |
| 2026-04-25 06:39 | 60.20237 | 147.42705 | 28947 ft | 448 kts | 91° |
| 2026-04-25 06:39 | 60.19773 | 147.48773 | 28435 ft | 443 kts | 91° |
| 2026-04-25 06:40 | 60.19300 | 147.54924 | 27910 ft | 438 kts | 91° |
| 2026-04-25 06:40 | 60.18841 | 147.60855 | 27442 ft | 432 kts | 91° |
| 2026-04-25 06:40 | 60.18381 | 147.66776 | 26973 ft | 428 kts | 92° |
| 2026-04-25 06:40 | 60.17921 | 147.72665 | 26420 ft | 425 kts | 92° |
| 2026-04-25 06:41 | 60.17461 | 147.78515 | 25935 ft | 422 kts | 92° |
| 2026-04-25 06:41 | 60.17004 | 147.84307 | 25445 ft | 418 kts | 92° |
| 2026-04-25 06:41 | 60.16549 | 147.90041 | 24952 ft | 414 kts | 92° |
| 2026-04-25 06:41 | 60.16093 | 147.95738 | 24464 ft | 411 kts | 92° |
| 2026-04-25 06:42 | 60.15639 | 148.01375 | 23975 ft | 408 kts | 93° |
| 2026-04-25 06:42 | 60.15184 | 148.06984 | 23494 ft | 405 kts | 93° |
| 2026-04-25 06:42 | 60.14732 | 148.12532 | 22960 ft | 401 kts | 93° |
| 2026-04-25 06:42 | 60.14282 | 148.18022 | 22470 ft | 396 kts | 93° |
| 2026-04-25 06:43 | 60.13836 | 148.23436 | 22010 ft | 391 kts | 93° |
| 2026-04-25 06:43 | 60.13392 | 148.28784 | 21541 ft | 386 kts | 93° |
| 2026-04-25 06:43 | 60.12951 | 148.34070 | 21085 ft | 382 kts | 93° |
| 2026-04-25 06:43 | 60.12515 | 148.39301 | 20622 ft | 379 kts | 94° |
| 2026-04-25 06:44 | 60.12080 | 148.44501 | 20166 ft | 376 kts | 94° |
| 2026-04-25 06:44 | 60.11646 | 148.49655 | 19719 ft | 373 kts | 94° |
| 2026-04-25 06:44 | 60.11215 | 148.54764 | 19296 ft | 371 kts | 94° |
| 2026-04-25 06:44 | 60.10784 | 148.59839 | 18822 ft | 368 kts | 94° |
| 2026-04-25 06:45 | 60.10353 | 148.64871 | 18386 ft | 365 kts | 94° |
| 2026-04-25 06:45 | 60.09922 | 148.69862 | 17895 ft | 362 kts | 94° |
| 2026-04-25 06:45 | 60.09495 | 148.74802 | 17437 ft | 358 kts | 94° |
| 2026-04-25 06:45 | 60.09070 | 148.79693 | 16993 ft | 356 kts | 94° |
| 2026-04-25 06:46 | 60.08645 | 148.84558 | 16550 ft | 353 kts | 95° |
| 2026-04-25 06:46 | 60.08222 | 148.89383 | 16096 ft | 351 kts | 95° |
| 2026-04-25 06:46 | 60.07802 | 148.94186 | 15661 ft | 349 kts | 95° |
| 2026-04-25 06:46 | 60.07384 | 148.98958 | 15242 ft | 346 kts | 95° |
| 2026-04-25 06:47 | 60.06964 | 149.03685 | 14793 ft | 344 kts | 94° |
| 2026-04-25 06:47 | 60.06542 | 149.08378 | 14353 ft | 341 kts | 95° |
| 2026-04-25 06:47 | 60.06126 | 149.13014 | 13984 ft | 337 kts | 94° |
| 2026-04-25 06:47 | 60.05715 | 149.17621 | 13544 ft | 335 kts | 95° |
| 2026-04-25 06:48 | 60.05310 | 149.22146 | 13117 ft | 333 kts | 95° |
| 2026-04-25 06:48 | 60.04902 | 149.26685 | 12695 ft | 331 kts | 95° |
| 2026-04-25 06:48 | 60.04495 | 149.31194 | 12272 ft | 328 kts | 95° |
| 2026-04-25 06:48 | 60.04090 | 149.35681 | 11860 ft | 327 kts | 95° |
| 2026-04-25 06:49 | 60.03685 | 149.40138 | 11428 ft | 324 kts | 96° |
| 2026-04-25 06:49 | 60.03413 | 149.43115 | 11241 ft | 319 kts | 96° |
| 2026-04-25 06:49 | 60.03016 | 149.47407 | 11129 ft | 308 kts | 96° |
| 2026-04-25 06:49 | 60.02622 | 149.51550 | 11025 ft | 299 kts | 97° |
| 2026-04-25 06:50 | 60.02072 | 149.55481 | 10954 ft | 298 kts | 103° |
| 2026-04-25 06:50 | 60.01405 | 149.59400 | 10730 ft | 297 kts | 104° |
| 2026-04-25 06:50 | 60.00722 | 149.63289 | 10352 ft | 297 kts | 105° |
| 2026-04-25 06:50 | 60.00036 | 149.67179 | 10043 ft | 296 kts | 105° |
| 2026-04-25 06:51 | 59.99362 | 149.71016 | 9788 ft | 286 kts | 105° |
| 2026-04-25 06:51 | 59.98717 | 149.74675 | 9119 ft | 276 kts | 105° |
| 2026-04-25 06:51 | 59.98086 | 149.78269 | 8240 ft | 273 kts | 105° |
| 2026-04-25 06:51 | 59.97467 | 149.81782 | 7696 ft | 266 kts | 105° |
| 2026-04-25 06:52 | 59.96852 | 149.85307 | 7381 ft | 271 kts | 105° |
| 2026-04-25 06:52 | 59.96231 | 149.88831 | 7134 ft | 268 kts | 105° |
| 2026-04-25 06:52 | 59.95612 | 149.92313 | 6767 ft | 264 kts | 105° |
| 2026-04-25 06:52 | 59.95003 | 149.95741 | 6153 ft | 260 kts | 105° |
| 2026-04-25 06:53 | 59.94393 | 149.99183 | 5746 ft | 265 kts | 105° |
| 2026-04-25 06:53 | 59.93780 | 150.02626 | 5430 ft | 263 kts | 105° |
| 2026-04-25 06:53 | 59.93173 | 150.06055 | 5099 ft | 261 kts | 105° |
| 2026-04-25 06:53 | 59.92772 | 150.09551 | 4757 ft | 257 kts | 92° |
| 2026-04-25 06:54 | 59.92661 | 150.13080 | 4416 ft | 254 kts | 88° |
| 2026-04-25 06:54 | 59.92592 | 150.16577 | 4104 ft | 251 kts | 89° |
| 2026-04-25 06:54 | 59.92510 | 150.20049 | 4004 ft | 252 kts | 90° |
| 2026-04-25 06:54 | 59.92413 | 150.23549 | 4002 ft | 252 kts | 90° |
| 2026-04-25 06:55 | 59.92307 | 150.27022 | 3986 ft | 248 kts | 90° |
| 2026-04-25 06:55 | 59.92202 | 150.30353 | 3996 ft | 233 kts | 90° |
| 2026-04-25 06:55 | 59.92107 | 150.33485 | 4008 ft | 220 kts | 90° |
| 2026-04-25 06:55 | 59.92023 | 150.36449 | 3969 ft | 211 kts | 88° |
| 2026-04-25 06:56 | 59.91957 | 150.39366 | 3728 ft | 210 kts | 87° |
| 2026-04-25 06:56 | 59.91887 | 150.42288 | 3397 ft | 212 kts | 88° |
| 2026-04-25 06:56 | 59.91805 | 150.45226 | 3079 ft | 213 kts | 88° |
| 2026-04-25 06:56 | 59.91726 | 150.48135 | 2764 ft | 205 kts | 88° |
| 2026-04-25 06:57 | 59.91652 | 150.50890 | 2515 ft | 191 kts | 86° |
| 2026-04-25 06:57 | 59.91585 | 150.53438 | 2204 ft | 178 kts | 87° |
| 2026-04-25 06:57 | 59.91523 | 150.55822 | 1903 ft | 166 kts | 89° |
| 2026-04-25 06:57 | 59.91464 | 150.58007 | 1694 ft | 153 kts | 87° |
| 2026-04-25 06:58 | 59.91411 | 150.60042 | 1454 ft | 141 kts | 87° |
| 2026-04-25 06:58 | 59.91363 | 150.61932 | 1274 ft | 134 kts | 87° |
| 2026-04-25 06:58 | 59.91305 | 150.63857 | 1111 ft | 140 kts | 89° |
| 2026-04-25 06:58 | 59.91244 | 150.65799 | 952 ft | 143 kts | 90° |
| 2026-04-25 06:59 | 59.91213 | 150.67755 | 740 ft | 141 kts | 89° |
| 2026-04-25 06:59 | 59.91154 | 150.69686 | 603 ft | 137 kts | 88° |
| 2026-04-25 06:59 | 59.91117 | 150.71342 | 589 ft | 95 kts | 92° |